createdAt,value
2023-02-27T00:02:21.726Z,92710.47
2023-02-27T00:04:51.646Z,92708.69
2023-02-27T00:07:23.789Z,92699.72
2023-02-27T00:09:52.866Z,92708.81
2023-02-27T00:12:21.732Z,92698.06
2023-02-27T00:14:49.472Z,92701.69
2023-02-27T00:17:17.277Z,92698.25
2023-02-27T00:19:49.911Z,92710.50
2023-02-27T00:22:18.195Z,92698.31
2023-02-27T00:24:48.892Z,92712.13
2023-02-27T00:27:19.099Z,92719.88
2023-02-27T00:29:47.000Z,92731.16
2023-02-27T00:32:15.063Z,92728.97
2023-02-27T00:34:42.949Z,92733.38
2023-02-27T00:37:12.493Z,92733.97
2023-02-27T00:39:40.567Z,92734.59
2023-02-27T00:42:09.024Z,92719.19
2023-02-27T00:44:37.142Z,92730.94
2023-02-27T00:49:49.904Z,92723.66
2023-02-27T00:52:18.232Z,92716.94
2023-02-27T00:54:55.554Z,92714.81
2023-02-27T00:57:24.938Z,92692.25
2023-02-27T00:59:52.966Z,92706.13
2023-02-27T01:02:21.105Z,92712.56
2023-02-27T01:04:49.418Z,92704.69
2023-02-27T01:07:17.560Z,92700.72
2023-02-27T01:12:27.121Z,92711.13
2023-02-27T01:14:55.376Z,92707.97
2023-02-27T01:17:23.969Z,92716.28
2023-02-27T01:19:54.317Z,92716.25
2023-02-27T01:22:24.579Z,92726.72
2023-02-27T01:24:52.589Z,92723.66
2023-02-27T01:27:20.458Z,92713.38
2023-02-27T01:32:30.443Z,92718.72
2023-02-27T01:34:58.614Z,92724.31
2023-02-27T01:37:27.079Z,92722.47
2023-02-27T01:39:59.727Z,92731.13
2023-02-27T01:42:29.772Z,92730.34
2023-02-27T01:45:23.838Z,92730.97
2023-02-27T01:47:56.065Z,92721.16
2023-02-27T01:50:24.873Z,92731.81
2023-02-27T01:53:00.014Z,92728.31
2023-02-27T01:55:31.584Z,92738.88
2023-02-27T01:58:00.384Z,92736.50
2023-02-27T02:00:28.666Z,92740.22
2023-02-27T02:03:16.682Z,92746.38
2023-02-27T02:05:47.095Z,92762.06
2023-02-27T02:08:18.732Z,92765.81
2023-02-27T02:10:50.402Z,92767.75
2023-02-27T02:13:19.452Z,92763.47
2023-02-27T02:16:00.935Z,92775.66
2023-02-27T02:18:54.381Z,92771.69
2023-02-27T02:21:59.031Z,92777.91
2023-02-27T02:24:57.744Z,92796.69
2023-02-27T02:27:40.763Z,92897.50
2023-02-27T02:30:36.057Z,92978.47
2023-02-27T02:33:32.274Z,92986.66
2023-02-27T02:36:04.847Z,93013.88
2023-02-27T02:38:51.126Z,93025.59
2023-02-27T02:41:25.653Z,93035.81
2023-02-27T02:44:12.212Z,93049.06
2023-02-27T02:46:51.349Z,93043.69
2023-02-27T02:49:35.521Z,93033.41
2023-02-27T02:52:14.905Z,93054.41
2023-02-27T02:57:53.576Z,93052.50
2023-02-27T03:00:29.209Z,93055.16
2023-02-27T03:03:07.172Z,93062.91
2023-02-27T03:05:41.255Z,93062.91
2023-02-27T03:08:25.157Z,93062.03
2023-02-27T03:10:58.049Z,93042.41
2023-02-27T03:13:40.462Z,93063.75
2023-02-27T03:16:23.233Z,93080.72
2023-02-27T03:19:06.200Z,93073.44
2023-02-27T03:21:42.099Z,93047.22
2023-02-27T03:24:15.193Z,93048.72
2023-02-27T03:26:45.838Z,93025.69
2023-02-27T03:29:26.688Z,93014.25
2023-02-27T03:32:01.597Z,93011.97
2023-02-27T03:34:40.456Z,93036.09
2023-02-27T03:37:49.038Z,93068.03
2023-02-27T03:40:39.776Z,93082.97
2023-02-27T03:43:52.893Z,93083.00
2023-02-27T03:46:26.819Z,93078.41
2023-02-27T03:48:55.540Z,93080.97
2023-02-27T03:51:25.799Z,93084.91
2023-02-27T03:54:35.479Z,93093.28
2023-02-27T03:57:08.705Z,93091.13
2023-02-27T03:59:38.242Z,93071.47
2023-02-27T04:02:06.639Z,93072.19
2023-02-27T04:04:36.306Z,93090.72
2023-02-27T04:07:54.526Z,93066.63
2023-02-27T04:10:50.134Z,93078.94
2023-02-27T04:13:23.124Z,93084.25
2023-02-27T04:16:03.062Z,93081.91
2023-02-27T04:18:49.539Z,93084.28
2023-02-27T04:21:17.371Z,93084.06
2023-02-27T04:23:50.457Z,93076.03
2023-02-27T04:26:30.821Z,93092.13
2023-02-27T04:29:07.818Z,93090.94
2023-02-27T04:31:36.016Z,93091.16
2023-02-27T04:34:11.745Z,93093.53
2023-02-27T04:36:54.146Z,93101.41
2023-02-27T04:39:25.135Z,93108.38
2023-02-27T04:42:05.567Z,93112.19
2023-02-27T04:44:36.507Z,93127.69
2023-02-27T04:47:07.751Z,93134.34
2023-02-27T04:49:41.984Z,93143.16
2023-02-27T04:52:15.923Z,93154.63
2023-02-27T04:54:47.017Z,93142.59
2023-02-27T04:57:21.175Z,93147.88
2023-02-27T04:59:55.368Z,93167.50
2023-02-27T05:02:33.036Z,93174.03
2023-02-27T05:05:04.054Z,93148.47
2023-02-27T05:07:47.310Z,93171.69
2023-02-27T05:10:30.589Z,93168.81
2023-02-27T05:13:10.860Z,93183.22
2023-02-27T05:15:45.838Z,93182.00
2023-02-27T05:18:18.425Z,93196.25
2023-02-27T05:21:28.294Z,93192.97
2023-02-27T05:24:22.319Z,93214.59
2023-02-27T05:27:18.138Z,93197.72
2023-02-27T05:29:50.606Z,93214.19
2023-02-27T05:32:26.738Z,93209.91
2023-02-27T05:35:39.260Z,93213.06
2023-02-27T05:38:21.240Z,93205.03
2023-02-27T05:41:01.130Z,93192.09
2023-02-27T05:43:36.372Z,93216.34
2023-02-27T05:46:10.746Z,93215.41
2023-02-27T05:48:47.841Z,93220.31
2023-02-27T05:51:17.835Z,93227.81
2023-02-27T05:53:51.434Z,93230.69
2023-02-27T05:56:23.802Z,93240.09
2023-02-27T05:58:57.042Z,93248.78
2023-02-27T06:01:24.977Z,93252.56
2023-02-27T06:03:54.003Z,93257.53
2023-02-27T06:06:23.334Z,93246.53
2023-02-27T06:08:51.573Z,93271.63
2023-02-27T06:11:19.405Z,93261.03
2023-02-27T06:13:47.371Z,93276.06
2023-02-27T06:16:16.308Z,93272.75
2023-02-27T06:18:44.202Z,93259.66
2023-02-27T06:21:14.120Z,93266.56
2023-02-27T06:23:41.923Z,93264.88
2023-02-27T06:26:13.878Z,93264.63
2023-02-27T06:28:42.709Z,93268.63
2023-02-27T06:31:10.695Z,93277.50
2023-02-27T06:33:38.814Z,93287.38
2023-02-27T06:36:07.031Z,93277.66
2023-02-27T06:38:35.069Z,93289.72
2023-02-27T06:41:11.751Z,93277.69
2023-02-27T06:43:40.023Z,93286.94
2023-02-27T06:46:08.078Z,93282.50
2023-02-27T06:48:36.130Z,93281.09
2023-02-27T06:51:04.370Z,93279.28
2023-02-27T06:53:32.405Z,93280.31
2023-02-27T06:56:00.437Z,93279.91
2023-02-27T06:58:28.377Z,93275.63
2023-02-27T07:00:58.672Z,93273.81
2023-02-27T07:03:26.932Z,93270.25
2023-02-27T07:05:54.730Z,93276.25
2023-02-27T07:08:22.908Z,93275.81
2023-02-27T07:10:50.962Z,93277.50
2023-02-27T07:13:19.868Z,93281.38
2023-02-27T07:15:48.086Z,93297.38
2023-02-27T07:18:16.164Z,93287.97
2023-02-27T07:20:44.105Z,93298.06
2023-02-27T07:23:12.079Z,93305.69
2023-02-27T07:25:39.915Z,93312.13
2023-02-27T07:28:08.050Z,93302.66
2023-02-27T07:30:36.132Z,93306.66
2023-02-27T07:33:04.064Z,93303.38
2023-02-27T07:35:32.141Z,93306.63
2023-02-27T07:37:59.991Z,93308.28
2023-02-27T07:40:28.255Z,93312.19
2023-02-27T07:42:56.175Z,93323.56
2023-02-27T07:45:24.409Z,93319.16
2023-02-27T07:47:52.322Z,93314.88
2023-02-27T07:50:20.550Z,93305.88
2023-02-27T07:52:48.541Z,93305.06
2023-02-27T07:55:16.623Z,93307.03
2023-02-27T07:57:45.506Z,93315.06
2023-02-27T08:00:13.740Z,93318.22
2023-02-27T08:02:41.877Z,93316.38
2023-02-27T08:05:10.300Z,93314.00
2023-02-27T08:07:38.173Z,93318.75
2023-02-27T08:10:07.129Z,93314.56
2023-02-27T08:12:35.329Z,93310.53
2023-02-27T08:15:03.469Z,93305.56
2023-02-27T08:17:31.770Z,93307.56
2023-02-27T08:19:59.830Z,93302.63
2023-02-27T08:22:27.755Z,93306.72
2023-02-27T08:24:55.836Z,93309.59
2023-02-27T08:27:24.489Z,93307.00
2023-02-27T08:29:52.460Z,93300.34
2023-02-27T08:32:20.544Z,93305.69
2023-02-27T08:34:48.670Z,93316.25
2023-02-27T08:37:16.604Z,93319.16
2023-02-27T08:39:44.708Z,93317.81
2023-02-27T08:42:12.943Z,93316.44
2023-02-27T08:44:40.911Z,93306.59
2023-02-27T08:47:08.965Z,93307.63
2023-02-27T08:49:37.222Z,93306.53
2023-02-27T08:52:05.852Z,93311.09
2023-02-27T08:54:33.792Z,93320.06
2023-02-27T08:57:01.794Z,93328.91
2023-02-27T08:59:30.609Z,93326.00
2023-02-27T09:01:59.312Z,93345.13
2023-02-27T09:04:26.985Z,93345.69
2023-02-27T09:06:54.960Z,93346.50
2023-02-27T09:09:26.369Z,93346.94
2023-02-27T09:11:54.514Z,93353.22
2023-02-27T09:14:24.329Z,93348.69
2023-02-27T09:16:52.252Z,93348.38
2023-02-27T09:19:20.464Z,93351.56
2023-02-27T09:21:48.667Z,93351.19
2023-02-27T09:24:20.457Z,93351.69
2023-02-27T09:26:50.270Z,93356.88
2023-02-27T09:29:19.221Z,93358.75
2023-02-27T09:31:47.683Z,93359.34
2023-02-27T09:34:15.845Z,93360.38
2023-02-27T09:36:43.880Z,93364.19
2023-02-27T09:39:14.191Z,93373.22
2023-02-27T09:41:55.867Z,93380.09
2023-02-27T09:44:52.905Z,93385.16
2023-02-27T09:47:26.701Z,93389.53
2023-02-27T09:50:06.531Z,93389.44
2023-02-27T09:52:37.596Z,93379.66
2023-02-27T09:55:12.529Z,93376.97
2023-02-27T09:58:07.138Z,93388.00
2023-02-27T10:00:51.608Z,93382.84
2023-02-27T10:03:37.585Z,93375.03
2023-02-27T10:06:08.652Z,93383.41
2023-02-27T10:08:44.876Z,93385.69
2023-02-27T10:11:17.836Z,93387.06
2023-02-27T10:14:13.255Z,93371.06
2023-02-27T10:16:43.207Z,93374.03
2023-02-27T10:19:17.426Z,93381.69
2023-02-27T10:21:50.024Z,93385.03
2023-02-27T10:24:24.150Z,93384.59
2023-02-27T10:26:55.999Z,93377.31
2023-02-27T10:29:40.163Z,93380.19
2023-02-27T10:32:18.846Z,93382.72
2023-02-27T10:35:11.462Z,93374.59
2023-02-27T10:37:48.626Z,93377.53
2023-02-27T10:40:18.115Z,93372.78
2023-02-27T10:42:46.202Z,93374.06
2023-02-27T10:45:16.151Z,93371.97
2023-02-27T10:47:44.723Z,93372.44
2023-02-27T10:50:23.186Z,93369.66
2023-02-27T10:52:53.033Z,93379.81
2023-02-27T10:55:28.208Z,93369.41
2023-02-27T10:58:01.176Z,93368.59
2023-02-27T11:00:44.277Z,93368.94
2023-02-27T11:03:32.669Z,93370.25
2023-02-27T11:06:07.435Z,93377.50
2023-02-27T11:08:36.584Z,93375.34
2023-02-27T11:11:07.389Z,93372.06
2023-02-27T11:13:39.052Z,93366.56
2023-02-27T11:16:09.974Z,93369.06
2023-02-27T11:18:40.475Z,93365.97
2023-02-27T11:21:30.037Z,93363.94
2023-02-27T11:24:00.319Z,93361.03
2023-02-27T11:26:38.441Z,93353.28
2023-02-27T11:29:08.644Z,93357.28
2023-02-27T11:31:38.562Z,93356.13
2023-02-27T11:34:08.657Z,93354.44
2023-02-27T11:36:46.865Z,93353.13
2023-02-27T11:39:29.793Z,93360.59
2023-02-27T11:42:06.106Z,93365.03
2023-02-27T11:44:50.895Z,93364.31
2023-02-27T11:47:34.359Z,93371.34
2023-02-27T11:50:41.584Z,93373.75
2023-02-27T11:53:42.301Z,93375.09
2023-02-27T11:56:19.565Z,93376.91
2023-02-27T11:59:12.630Z,93382.97
2023-02-27T12:01:47.090Z,93376.88
2023-02-27T12:04:22.330Z,93372.88
2023-02-27T12:07:04.041Z,93376.63
2023-02-27T12:09:46.129Z,93377.66
2023-02-27T12:12:24.778Z,93372.38
2023-02-27T12:15:07.521Z,93356.59
2023-02-27T12:17:41.904Z,93368.34
2023-02-27T12:20:23.124Z,93375.88
2023-02-27T12:22:54.644Z,93381.06
2023-02-27T12:26:03.642Z,93371.81
2023-02-27T12:29:05.069Z,93370.28
2023-02-27T12:31:41.261Z,93368.34
2023-02-27T12:34:15.957Z,93372.88
2023-02-27T12:36:44.029Z,93368.59
2023-02-27T12:39:24.326Z,93366.44
2023-02-27T12:42:22.023Z,93361.09
2023-02-27T12:45:14.588Z,93363.72
2023-02-27T12:47:42.746Z,93374.75
2023-02-27T12:50:13.145Z,93375.06
2023-02-27T12:53:14.568Z,93376.69
2023-02-27T12:55:56.563Z,93379.41
2023-02-27T12:58:46.018Z,93383.41
2023-02-27T13:01:32.707Z,93374.59
2023-02-27T13:04:43.232Z,93379.13
2023-02-27T13:07:29.104Z,93394.38
2023-02-27T13:10:04.390Z,93386.63
2023-02-27T13:13:21.487Z,93379.38
2023-02-27T13:16:14.609Z,93384.19
2023-02-27T13:18:49.185Z,93384.19
2023-02-27T13:21:54.673Z,93388.75
2023-02-27T13:24:31.577Z,93384.44
2023-02-27T13:27:00.053Z,93382.84
2023-02-27T13:29:37.373Z,93379.09
2023-02-27T13:32:41.295Z,93386.56
2023-02-27T13:35:41.972Z,93403.34
2023-02-27T13:38:32.646Z,93356.19
2023-02-27T13:41:38.493Z,93392.63
2023-02-27T13:44:21.888Z,93394.66
2023-02-27T13:46:50.263Z,93383.44
2023-02-27T13:49:30.203Z,93386.63
2023-02-27T13:52:02.392Z,93382.31
2023-02-27T13:54:40.224Z,93385.53
2023-02-27T13:57:19.905Z,93386.63
2023-02-27T14:00:21.474Z,93384.72
2023-02-27T14:03:00.555Z,93367.13
2023-02-27T14:05:35.212Z,93379.50
2023-02-27T14:08:12.484Z,93376.81
2023-02-27T14:10:51.210Z,93376.72
2023-02-27T14:13:51.347Z,93374.72
2023-02-27T14:16:38.253Z,93380.84
2023-02-27T14:19:18.274Z,93374.75
2023-02-27T14:21:57.917Z,93383.84
2023-02-27T14:25:01.222Z,93384.44
2023-02-27T14:27:47.444Z,93399.34
2023-02-27T14:30:29.567Z,93395.91
2023-02-27T14:33:03.093Z,93402.88
2023-02-27T14:35:32.330Z,93398.59
2023-02-27T14:38:08.654Z,93406.56
2023-02-27T14:40:48.272Z,93410.72
2023-02-27T14:43:18.916Z,93416.03
2023-02-27T14:45:48.460Z,93413.16
2023-02-27T14:48:27.038Z,93386.94
2023-02-27T14:50:58.432Z,93417.47
2023-02-27T14:53:27.707Z,93420.41
2023-02-27T14:55:59.531Z,93425.63
2023-02-27T14:58:28.065Z,93426.19
2023-02-27T15:00:56.134Z,93433.63
2023-02-27T15:03:35.186Z,93449.66
2023-02-27T15:06:15.871Z,93450.81
2023-02-27T15:08:48.550Z,93455.78
2023-02-27T15:11:20.141Z,93480.75
2023-02-27T15:14:01.413Z,93483.25
2023-02-27T15:16:31.989Z,93493.50
2023-02-27T15:19:05.232Z,93499.06
2023-02-27T15:21:39.065Z,93509.94
2023-02-27T15:24:21.528Z,93515.53
2023-02-27T15:27:05.013Z,93511.94
2023-02-27T15:30:00.331Z,93506.22
2023-02-27T15:32:38.256Z,93515.63
2023-02-27T15:35:17.974Z,93524.88
2023-02-27T15:37:52.550Z,93535.94
2023-02-27T15:40:27.039Z,93532.88
2023-02-27T15:42:56.924Z,93542.81
2023-02-27T15:45:36.386Z,93545.19
2023-02-27T15:48:05.501Z,93560.75
2023-02-27T15:50:36.312Z,93566.47
2023-02-27T15:53:17.379Z,93566.06
2023-02-27T15:55:50.104Z,93564.22
2023-02-27T15:58:28.054Z,93567.75
2023-02-27T16:01:03.445Z,93570.19
2023-02-27T16:03:50.086Z,93569.97
2023-02-27T16:06:21.620Z,93575.44
2023-02-27T16:09:06.984Z,93576.66
2023-02-27T16:11:37.861Z,93578.75
2023-02-27T16:14:08.924Z,93583.16
2023-02-27T16:16:39.112Z,93572.94
2023-02-27T16:19:29.725Z,93578.97
2023-02-27T16:22:14.420Z,93572.97
2023-02-27T16:24:43.854Z,93586.38
2023-02-27T16:27:20.471Z,93586.53
2023-02-27T16:29:49.106Z,93602.34
2023-02-27T16:32:27.974Z,93607.22
2023-02-27T16:35:15.852Z,93601.06
2023-02-27T16:37:46.748Z,93601.63
2023-02-27T16:40:17.843Z,93601.47
2023-02-27T16:42:47.304Z,93612.09
2023-02-27T16:45:19.186Z,93608.72
2023-02-27T16:47:50.417Z,93618.06
2023-02-27T16:50:41.464Z,93632.16
2023-02-27T16:53:09.809Z,93635.50
2023-02-27T16:55:40.788Z,93659.16
2023-02-27T16:58:15.948Z,93664.38
2023-02-27T17:00:44.292Z,93673.13
2023-02-27T17:03:12.575Z,93666.09
2023-02-27T17:05:41.812Z,93660.78
2023-02-27T17:08:10.652Z,93650.31
2023-02-27T17:10:38.946Z,93660.84
2023-02-27T17:13:07.438Z,93654.50
2023-02-27T17:15:35.718Z,93669.25
2023-02-27T17:18:04.110Z,93668.94
2023-02-27T17:20:32.532Z,93660.59
2023-02-27T17:23:01.058Z,93623.97
2023-02-27T17:25:30.339Z,93658.97
2023-02-27T17:27:58.853Z,93653.31
2023-02-27T17:30:27.406Z,93674.34
2023-02-27T17:32:56.885Z,93676.38
2023-02-27T17:35:27.053Z,93666.66
2023-02-27T17:37:56.129Z,93658.94
2023-02-27T17:40:24.635Z,93649.81
2023-02-27T17:42:53.155Z,93640.25
2023-02-27T17:45:21.922Z,93648.84
2023-02-27T17:47:50.873Z,93652.16
2023-02-27T17:50:19.234Z,93621.44
2023-02-27T17:52:47.611Z,93660.00
2023-02-27T17:55:17.128Z,93655.84
2023-02-27T17:57:45.717Z,93658.75
2023-02-27T18:00:15.574Z,93666.72
2023-02-27T18:02:45.828Z,93663.38
2023-02-27T18:05:15.172Z,93678.16
2023-02-27T18:07:43.727Z,93674.69
2023-02-27T18:10:14.614Z,93668.34
2023-02-27T18:12:43.724Z,93673.50
2023-02-27T18:15:12.146Z,93653.56
2023-02-27T18:17:40.538Z,93672.84
2023-02-27T18:20:10.463Z,93670.88
2023-02-27T18:22:38.973Z,93654.97
2023-02-27T18:25:07.503Z,93668.56
2023-02-27T18:27:36.004Z,93678.97
2023-02-27T18:30:04.898Z,93680.81
2023-02-27T18:32:33.272Z,93683.59
2023-02-27T18:35:02.506Z,93693.72
2023-02-27T18:37:30.970Z,93695.47
2023-02-27T18:39:59.464Z,93698.56
2023-02-27T18:42:28.015Z,93695.81
2023-02-27T18:44:56.678Z,93698.91
2023-02-27T18:47:25.867Z,93709.28
2023-02-27T18:49:54.438Z,93699.81
2023-02-27T18:52:22.886Z,93714.97
2023-02-27T18:54:51.698Z,93709.88
2023-02-27T18:57:20.090Z,93717.16
2023-02-27T18:59:48.674Z,93714.16
2023-02-27T19:02:19.976Z,93712.66
2023-02-27T19:04:49.383Z,93716.69
2023-02-27T19:07:18.637Z,93716.00
2023-02-27T19:09:47.335Z,93728.22
2023-02-27T19:12:16.018Z,93730.25
2023-02-27T19:14:44.337Z,93743.00
2023-02-27T19:17:12.976Z,93740.47
2023-02-27T19:19:41.570Z,93748.59
2023-02-27T19:22:09.964Z,93754.44
2023-02-27T19:24:38.573Z,93752.94
2023-02-27T19:27:07.996Z,93758.25
2023-02-27T19:29:36.756Z,93757.44
2023-02-27T19:32:07.962Z,93765.66
2023-02-27T19:34:36.505Z,93755.66
2023-02-27T19:37:05.078Z,93748.97
2023-02-27T19:39:33.326Z,93744.25
2023-02-27T19:42:02.170Z,93745.28
2023-02-27T19:44:30.310Z,93749.94
2023-02-27T19:46:59.014Z,93751.41
2023-02-27T19:49:27.669Z,93755.22
2023-02-27T19:51:56.328Z,93743.28
2023-02-27T19:54:25.000Z,93752.69
2023-02-27T19:56:54.717Z,93754.75
2023-02-27T19:59:24.882Z,93756.53
2023-02-27T20:01:53.684Z,93758.94
2023-02-27T20:04:22.075Z,93765.31
2023-02-27T20:06:53.304Z,93773.88
2023-02-27T20:09:23.595Z,93785.56
2023-02-27T20:11:57.115Z,93791.72
2023-02-27T20:14:25.940Z,93789.75
2023-02-27T20:16:54.657Z,93797.25
2023-02-27T20:19:24.618Z,93779.66
2023-02-27T20:21:54.577Z,93796.38
2023-02-27T20:24:24.845Z,93787.59
2023-02-27T20:26:54.590Z,93782.75
2023-02-27T20:29:24.975Z,93786.50
2023-02-27T20:31:55.859Z,93797.00
2023-02-27T20:34:26.666Z,93804.53
2023-02-27T20:36:56.175Z,93804.84
2023-02-27T20:39:25.296Z,93806.81
2023-02-27T20:41:53.397Z,93799.59
2023-02-27T20:44:21.900Z,93792.09
2023-02-27T20:46:50.401Z,93800.56
2023-02-27T20:49:19.060Z,93806.91
2023-02-27T20:51:46.972Z,93806.91
2023-02-27T20:54:20.774Z,93816.63
2023-02-27T20:56:54.834Z,93806.44
2023-02-27T20:59:25.781Z,93807.69
2023-02-27T21:01:54.750Z,93816.16
2023-02-27T21:04:43.255Z,93817.75
2023-02-27T21:07:16.559Z,93823.91
2023-02-27T21:09:48.340Z,93819.19
2023-02-27T21:12:17.554Z,93822.22
2023-02-27T21:14:45.648Z,93825.88
2023-02-27T21:17:14.071Z,93839.34
2023-02-27T21:19:42.405Z,93840.75
2023-02-27T21:22:12.679Z,93857.75
2023-02-27T21:24:45.500Z,93865.22
2023-02-27T21:27:14.051Z,93872.25
2023-02-27T21:29:42.541Z,93879.47
2023-02-27T21:34:54.820Z,93894.91
2023-02-27T21:37:32.084Z,93902.59
2023-02-27T21:40:02.465Z,93915.03
2023-02-27T21:45:19.846Z,93933.66
2023-02-27T21:47:57.646Z,93937.75
2023-02-27T21:50:29.618Z,93930.03
2023-02-27T21:52:58.027Z,93930.56
2023-02-27T21:55:36.083Z,93932.50
2023-02-27T21:58:04.532Z,93943.06
2023-02-27T22:03:14.455Z,93931.88
2023-02-27T22:05:53.130Z,93940.81
2023-02-27T22:08:21.168Z,93939.63
2023-02-27T22:13:32.602Z,93938.00
2023-02-27T22:16:05.614Z,93931.56
2023-02-27T22:18:34.295Z,93934.31
2023-02-27T22:21:03.066Z,93942.41
2023-02-27T22:23:31.448Z,93936.81
2023-02-27T22:26:07.511Z,93946.31
2023-02-27T22:28:39.324Z,93943.00
2023-02-27T22:31:19.750Z,93944.47
2023-02-27T22:33:50.360Z,93943.13
2023-02-27T22:36:24.746Z,93933.09
2023-02-27T22:38:53.580Z,93936.28
2023-02-27T22:41:28.165Z,93928.53
2023-02-27T22:43:57.119Z,93933.56
2023-02-27T22:46:39.833Z,93932.09
2023-02-27T22:49:12.620Z,93926.84
2023-02-27T22:51:40.814Z,93932.88
2023-02-27T22:54:10.382Z,93919.50
2023-02-27T22:56:40.400Z,93924.84
2023-02-27T22:59:08.759Z,93932.72
2023-02-27T23:01:37.965Z,93915.06
2023-02-27T23:04:08.979Z,93926.72
2023-02-27T23:06:43.156Z,93939.59
2023-02-27T23:09:17.265Z,93944.94
2023-02-27T23:11:45.225Z,93930.97
2023-02-27T23:14:13.735Z,93937.88
2023-02-27T23:16:45.885Z,93936.16
2023-02-27T23:19:16.447Z,93940.78
2023-02-27T23:21:44.404Z,93948.09
2023-02-27T23:24:18.095Z,93937.16
2023-02-27T23:26:50.462Z,93933.31
2023-02-27T23:29:19.091Z,93946.88
2023-02-27T23:31:47.346Z,93942.25
2023-02-27T23:34:15.349Z,93936.88
2023-02-27T23:36:44.258Z,93928.63
2023-02-27T23:39:12.253Z,93935.47
2023-02-27T23:41:40.433Z,93942.19
2023-02-27T23:44:08.300Z,93944.91
2023-02-27T23:46:36.199Z,93942.84
2023-02-27T23:49:04.115Z,93955.00
2023-02-27T23:51:33.622Z,93957.00
2023-02-27T23:54:01.841Z,93955.28
2023-02-27T23:56:31.198Z,93951.09
2023-02-27T23:59:02.397Z,93966.28
